Time;durP1;ratioP1;P1;durP2;ratioP2;P2;SDS_P1;SDS_P2;PMS_P1;PMS_P2;Temp;Humidity;BMP_temperature;BMP_pressure;BME280_temperature;BME280_humidity;BME280_pressure;Samples;Min_cycle;Max_cycle;Signal;HPM_P1;HPM_P2
2023/08/22 04:15:59;;;;;;;4.97;2.75;;;;;;;19.83;100.00;100602.13;5561019;32;180538;-88
2023/08/22 04:19:02;;;;;;;4.07;3.20;;;;;;;19.80;100.00;100613.16;5548350;32;33782;-85
2023/08/22 04:22:05;;;;;;;4.43;3.20;;;;;;;19.86;100.00;100609.94;5553923;32;34019;-86
2023/08/22 04:25:10;;;;;;;4.50;2.58;;;;;;;19.92;100.00;100617.47;5552631;32;33677;-87
2023/08/22 04:28:13;;;;;;;4.32;3.30;;;;;;;20.03;100.00;100624.69;5549602;32;33467;-86
2023/08/22 04:31:16;;;;;;;3.75;2.92;;;;;;;20.16;100.00;100613.69;5553533;32;34704;-87
2023/08/22 04:34:19;;;;;;;3.08;2.78;;;;;;;20.23;100.00;100614.03;5555266;32;33658;-87
2023/08/22 04:37:23;;;;;;;3.58;3.12;;;;;;;20.31;100.00;100619.59;5558153;32;33520;-87
2023/08/22 04:40:26;;;;;;;3.65;2.85;;;;;;;20.41;100.00;100625.00;5548121;32;34674;-91
2023/08/22 04:43:29;;;;;;;6.80;3.53;;;;;;;20.53;100.00;100622.22;5545795;32;34055;-91
2023/08/22 04:46:32;;;;;;;4.45;3.42;;;;;;;20.60;100.00;100626.94;5545844;32;33922;-91
2023/08/22 04:49:35;;;;;;;4.15;3.08;;;;;;;20.66;100.00;100627.41;5545732;32;33690;-92
2023/08/22 04:52:38;;;;;;;4.65;3.08;;;;;;;20.72;100.00;100632.25;5545865;32;33493;-87
2023/08/22 04:55:40;;;;;;;3.20;2.92;;;;;;;20.80;100.00;100636.94;5552529;32;33677;-87
2023/08/22 04:58:43;;;;;;;4.95;3.67;;;;;;;20.90;100.00;100643.25;5560119;32;35066;-86
2023/08/22 05:01:46;;;;;;;4.05;3.05;;;;;;;21.00;100.00;100646.81;5560273;32;35233;-87
2023/08/22 05:04:49;;;;;;;4.70;3.40;;;;;;;21.12;100.00;100646.72;5553106;32;35079;-87
2023/08/22 05:07:52;;;;;;;4.10;3.58;;;;;;;21.25;100.00;100651.84;5551534;32;34433;-86
2023/08/22 05:10:54;;;;;;;4.43;3.05;;;;;;;21.33;100.00;100646.59;5561036;32;34079;-87
2023/08/22 05:13:57;;;;;;;3.17;2.87;;;;;;;21.44;100.00;100648.31;5560771;32;35194;-87
2023/08/22 05:17:01;;;;;;;3.37;3.03;;;;;;;21.58;100.00;100649.75;5561014;32;34909;-87
2023/08/22 05:20:06;;;;;;;3.00;2.70;;;;;;;21.71;100.00;100654.88;5560829;32;34048;-86
2023/08/22 05:23:09;;;;;;;5.07;3.22;;;;;;;21.90;100.00;100661.25;5560464;32;35292;-86
2023/08/22 05:26:12;;;;;;;5.20;3.47;;;;;;;22.04;100.00;100655.44;5552044;32;35099;-87
2023/08/22 05:29:19;;;;;;;3.62;3.22;;;;;;;22.26;100.00;100663.31;5533108;32;34422;-87
2023/08/22 05:32:22;;;;;;;4.20;3.22;;;;;;;22.43;100.00;100664.44;5532893;32;34099;-86
2023/08/22 05:35:26;;;;;;;4.20;3.55;;;;;;;22.68;100.00;100657.50;5531325;32;33690;-86
2023/08/22 05:38:31;;;;;;;3.67;3.10;;;;;;;22.88;100.00;100663.69;5531704;32;33402;-87
2023/08/22 05:41:34;;;;;;;4.45;3.10;;;;;;;23.24;100.00;100664.78;5531586;32;33888;-87
2023/08/22 05:44:37;;;;;;;7.18;3.42;;;;;;;23.66;100.00;100669.62;5531281;32;33656;-86
2023/08/22 05:47:40;;;;;;;3.70;2.83;;;;;;;24.29;100.00;100671.47;5531570;32;33741;-86
2023/08/22 05:50:45;;;;;;;3.28;2.58;;;;;;;24.83;100.00;100665.84;5539622;32;34021;-87
2023/08/22 05:53:47;;;;;;;3.50;3.20;;;;;;;25.03;100.00;100673.72;5534868;32;34449;-87
2023/08/22 05:56:50;;;;;;;4.53;3.50;;;;;;;25.24;100.00;100670.56;5531341;32;34004;-87
2023/08/22 05:59:53;;;;;;;4.22;3.83;;;;;;;25.48;100.00;100673.50;5531418;32;34291;-88
2023/08/22 06:02:56;;;;;;;3.50;3.17;;;;;;;26.18;100.00;100674.03;5547746;26;35260;-89
2023/08/22 06:06:01;;;;;;;3.42;3.10;;;;;;;27.29;100.00;100682.34;5531853;32;34717;-88
2023/08/22 06:09:04;;;;;;;3.92;2.72;;;;;;;27.69;100.00;100686.88;5533088;32;33710;-87
2023/08/22 06:12:08;;;;;;;4.78;3.03;;;;;;;27.80;100.00;100685.63;5532475;32;34512;-89
2023/08/22 06:15:11;;;;;;;4.10;3.00;;;;;;;27.87;100.00;100681.13;5532645;32;33952;-88
2023/08/22 06:18:15;;;;;;;3.30;2.60;;;;;;;27.80;100.00;100680.16;5535273;32;34019;-87
2023/08/22 06:21:18;;;;;;;5.10;2.70;;;;;;;27.36;100.00;100684.34;5539806;32;33515;-88
2023/08/22 06:24:21;;;;;;;2.92;2.53;;;;;;;27.18;100.00;100671.88;5531697;32;33273;-87
2023/08/22 06:27:23;;;;;;;3.42;2.70;;;;;;;27.17;100.00;100670.19;5530780;32;34807;-87
2023/08/22 06:30:27;;;;;;;4.50;2.62;;;;;;;27.08;100.00;100673.97;5532603;32;32184;-88
2023/08/22 06:33:29;;;;;;;2.45;2.17;;;;;;;26.98;100.00;100679.62;5532202;32;33377;-87
2023/08/22 06:36:33;;;;;;;2.65;2.40;;;;;;;26.90;100.00;100683.22;5531041;32;34867;-86
2023/08/22 06:39:38;;;;;;;2.85;2.58;;;;;;;26.85;100.00;100682.91;5531007;32;33426;-87
2023/08/22 06:42:41;;;;;;;3.92;3.05;;;;;;;27.12;100.00;100669.84;5530841;32;33790;-87
2023/08/22 06:45:43;;;;;;;3.65;2.80;;;;;;;27.49;100.00;100681.88;5531349;32;33634;-87
2023/08/22 06:48:47;;;;;;;2.90;2.58;;;;;;;27.97;100.00;100683.59;5531390;32;34709;-91
2023/08/22 06:51:49;;;;;;;3.50;3.00;;;;;;;28.12;100.00;100686.34;5593217;26;33342;-88
2023/08/22 06:55:06;;;;;;;3.45;2.97;;;;;;;28.71;95.73;100684.72;5532465;32;34099;-89
2023/08/22 06:58:09;;;;;;;3.10;2.80;;;;;;;29.61;94.35;100680.97;5533709;32;33563;-88
2023/08/22 07:01:13;;;;;;;3.20;2.83;;;;;;;29.96;89.57;100683.81;5531939;32;34718;-88
2023/08/22 07:04:16;;;;;;;2.60;2.40;;;;;;;29.80;90.61;100687.66;5530493;32;34739;-88
2023/08/22 07:07:19;;;;;;;3.83;3.00;;;;;;;29.23;92.79;100681.16;5530823;32;34359;-88
2023/08/22 07:10:22;;;;;;;3.35;3.05;;;;;;;28.89;97.05;100691.69;5531781;32;35108;-88
2023/08/22 07:13:25;;;;;;;3.08;2.65;;;;;;;28.96;97.32;100681.69;5531402;32;35001;-89
2023/08/22 07:16:28;;;;;;;4.45;3.25;;;;;;;28.88;95.93;100679.94;5531050;32;34471;-87
2023/08/22 07:19:31;;;;;;;3.53;3.15;;;;;;;29.04;91.64;100691.66;5530603;32;34489;-87
2023/08/22 07:22:44;;;;;;;3.30;2.85;;;;;;;29.54;88.22;100680.91;5530394;32;34071;-89
2023/08/22 07:25:51;;;;;;;2.70;2.40;;;;;;;29.49;90.54;100680.66;5533545;32;33796;-88
2023/08/22 07:28:53;;;;;;;3.30;3.00;;;;;;;29.34;84.79;100686.12;5581008;26;34841;-89
2023/08/22 07:31:59;;;;;;;3.03;2.83;;;;;;;29.75;89.44;100681.13;5577133;32;34080;-88
2023/08/22 07:35:03;;;;;;;5.40;3.10;;;;;;;30.07;86.68;100673.38;5569882;32;33532;-88
2023/08/22 07:38:05;;;;;;;4.15;3.33;;;;;;;29.46;85.78;100673.66;5570019;32;34003;-88
2023/08/22 07:41:10;;;;;;;3.95;3.10;;;;;;;29.26;85.58;100678.91;5569398;32;34094;-89
2023/08/22 07:44:14;;;;;;;4.07;2.83;;;;;;;28.87;90.47;100682.84;5570770;32;33690;-89
2023/08/22 07:47:16;;;;;;;3.58;3.20;;;;;;;29.23;87.36;100676.56;5568887;32;34316;-87
2023/08/22 07:50:19;;;;;;;3.58;2.95;;;;;;;29.49;87.57;100671.59;5569229;32;33329;-87
2023/08/22 07:53:22;;;;;;;3.50;2.97;;;;;;;29.60;85.26;100665.62;5569108;32;33995;-87
2023/08/22 07:56:25;;;;;;;3.40;3.10;;;;;;;29.88;85.40;100666.69;5568040;32;33687;-87
2023/08/22 07:59:27;;;;;;;4.12;3.30;;;;;;;30.21;87.58;100672.44;5569876;32;34502;-87
2023/08/22 08:02:30;;;;;;;3.40;3.10;;;;;;;30.25;86.82;100662.81;5570845;32;34400;-87
2023/08/22 08:05:33;;;;;;;4.22;2.95;;;;;;;30.46;85.10;100665.69;5568646;32;33843;-87
2023/08/22 08:08:36;;;;;;;3.17;2.87;;;;;;;30.62;83.67;100667.22;5569495;32;34186;-87
2023/08/22 08:11:39;;;;;;;5.68;3.42;;;;;;;30.87;83.10;100669.47;5568520;32;33482;-86
2023/08/22 08:14:42;;;;;;;4.12;3.37;;;;;;;31.39;79.54;100674.50;5569320;32;34372;-87
2023/08/22 08:17:45;;;;;;;4.22;3.45;;;;;;;31.85;76.38;100676.50;5583590;32;34086;-86
2023/08/22 08:20:47;;;;;;;3.50;3.20;;;;;;;32.59;71.80;100675.56;5583438;32;34971;-86
2023/08/22 08:23:50;;;;;;;3.60;3.15;;;;;;;32.99;67.55;100676.50;5581887;32;35246;-86
2023/08/22 08:26:53;;;;;;;4.50;3.40;;;;;;;33.66;64.37;100678.00;5568556;32;33860;-87
2023/08/22 08:29:56;;;;;;;3.08;2.83;;;;;;;33.34;62.33;100678.84;5567811;32;33826;-86
2023/08/22 08:33:03;;;;;;;3.60;3.20;;;;;;;33.73;60.60;100682.41;5568546;32;34484;-86
2023/08/22 08:36:06;;;;;;;4.95;3.53;;;;;;;34.23;56.01;100677.13;5568544;32;34559;-86
2023/08/22 08:39:09;;;;;;;3.22;2.90;;;;;;;34.47;53.17;100675.38;5568499;32;33753;-85
2023/08/22 08:42:14;;;;;;;4.12;3.67;;;;;;;34.93;52.85;100670.41;5568343;32;33371;-86
2023/08/22 08:45:18;;;;;;;4.25;3.50;;;;;;;35.11;49.60;100674.22;5569125;32;34137;-87
2023/08/22 08:48:22;;;;;;;3.97;3.58;;;;;;;35.23;48.35;100666.00;5568201;32;33883;-89
2023/08/22 08:51:25;;;;;;;3.55;3.25;;;;;;;35.59;48.27;100674.37;5568986;32;34555;-87
2023/08/22 08:54:28;;;;;;;3.85;3.55;;;;;;;35.68;48.41;100669.34;5567583;32;33676;-87
2023/08/22 08:57:32;;;;;;;3.97;3.22;;;;;;;35.07;49.80;100665.56;5567328;32;34078;-91
2023/08/22 09:00:36;;;;;;;3.87;3.40;;;;;;;35.75;46.55;100665.41;5568012;32;33949;-91
2023/08/22 09:03:39;;;;;;;3.20;2.90;;;;;;;36.22;44.26;100662.94;5571505;32;33818;-90
2023/08/22 09:06:45;;;;;;;4.07;3.67;;;;;;;36.47;45.38;100665.44;5569712;32;33691;-87
2023/08/22 09:09:47;;;;;;;3.60;3.30;;;;;;;36.97;45.37;100665.91;5570320;32;34422;-87
2023/08/22 09:12:50;;;;;;;3.25;2.95;;;;;;;36.31;44.22;100660.66;5570132;32;33766;-87
2023/08/22 09:16:00;;;;;;;3.22;2.92;;;;;;;36.81;43.94;100653.72;5569802;32;34048;-87
2023/08/22 09:19:03;;;;;;;3.12;2.87;;;;;;;37.44;43.73;100647.41;5570305;32;33459;-89
2023/08/22 09:22:06;;;;;;;3.78;3.25;;;;;;;37.40;42.04;100649.84;5571511;32;33829;-88
2023/08/22 09:25:10;;;;;;;3.78;3.35;;;;;;;37.97;42.90;100649.94;5571315;32;34533;-87
2023/08/22 09:28:15;;;;;;;3.40;2.87;;;;;;;38.31;42.70;100641.59;5576695;32;33702;-88
2023/08/22 09:31:22;;;;;;;3.20;2.92;;;;;;;38.73;39.92;100644.88;5580300;32;33876;-89
2023/08/22 09:34:25;;;;;;;4.45;4.03;;;;;;;38.50;38.99;100644.88;5572146;32;33742;-89
2023/08/22 09:37:35;;;;;;;4.03;3.62;;;;;;;38.52;38.32;100644.63;5573778;26;33240;-88
2023/08/22 09:40:52;;;;;;;4.05;3.53;;;;;;;38.05;39.46;100643.97;5551357;32;33607;-88
2023/08/22 09:44:02;;;;;;;3.65;3.20;;;;;;;38.47;38.51;100636.25;5550981;32;35255;-88
2023/08/22 09:47:06;;;;;;;3.78;3.47;;;;;;;38.39;38.12;100638.38;5550142;32;33852;-88
2023/08/22 09:50:12;;;;;;;3.65;3.35;;;;;;;38.75;38.85;100621.34;5533040;32;34073;-88
2023/08/22 09:53:16;;;;;;;2.92;2.70;;;;;;;38.45;37.40;100621.81;5531856;32;33626;-88
2023/08/22 09:56:20;;;;;;;3.78;3.37;;;;;;;39.03;36.13;100625.03;5540654;32;33832;-88
2023/08/22 09:59:24;;;;;;;3.15;2.80;;;;;;;39.51;35.69;100626.28;5559076;32;33744;-90
2023/08/22 10:06:09;;;;;;;3.47;3.15;;;;;;;40.36;33.98;100614.34;2474150;30;20065;-89
2023/08/22 10:09:13;;;;;;;3.72;3.00;;;;;;;42.29;30.68;100616.09;5600987;26;34171;-87
2023/08/22 10:12:17;;;;;;;3.17;2.87;;;;;;;42.16;31.39;100605.56;5551380;32;33666;-92
2023/08/22 10:15:20;;;;;;;3.12;2.87;;;;;;;43.73;28.26;100612.63;5550364;32;33753;-92
2023/08/22 10:18:24;;;;;;;3.75;3.25;;;;;;;43.10;29.50;100614.28;5551105;32;34199;-92
2023/08/22 10:21:40;;;;;;;3.12;2.85;;;;;;;41.80;30.52;100603.72;5549048;32;34293;-88
2023/08/22 10:24:46;;;;;;;3.20;2.90;;;;;;;38.64;35.68;100598.25;5549349;32;33937;-88
2023/08/22 10:27:49;;;;;;;4.40;3.42;;;;;;;38.52;36.42;100595.56;5549001;32;34614;-87
2023/08/22 10:31:18;;;;;;;3.17;2.87;;;;;;;39.20;35.67;100599.09;5550094;32;34556;-87
2023/08/22 10:34:21;;;;;;;3.10;2.80;;;;;;;38.38;36.43;100586.00;5547131;32;33578;-89
2023/08/22 10:37:26;;;;;;;4.55;3.45;;;;;;;38.23;35.60;100579.19;5597910;26;33747;-89
2023/08/22 10:40:33;;;;;;;3.58;3.28;;;;;;;38.44;37.69;100584.12;5553154;32;33948;-89
2023/08/22 10:43:38;;;;;;;3.45;3.15;;;;;;;39.31;36.83;100580.63;5553924;32;34340;-90
2023/08/22 10:47:04;;;;;;;3.58;3.22;;;;;;;41.48;31.64;100588.16;5560288;32;33796;-89
2023/08/22 10:50:11;;;;;;;2.97;2.75;;;;;;;43.97;27.38;100589.47;5556371;32;33792;-89
2023/08/22 10:53:24;;;;;;;3.17;2.90;;;;;;;44.88;25.37;100589.69;5550689;32;34004;-89
2023/08/22 10:56:27;;;;;;;3.50;3.20;;;;;;;42.94;28.26;100586.47;5550365;32;34526;-89
2023/08/22 10:59:30;;;;;;;3.22;2.92;;;;;;;40.89;30.67;100579.22;5550439;31;34178;-89
2023/08/22 11:02:37;;;;;;;3.58;3.03;;;;;;;39.25;35.04;100571.41;5596729;26;33723;-88
2023/08/22 11:09:18;;;;;;;3.65;3.20;;;;;;;38.55;34.65;100570.16;5524707;26;20089;-88
2023/08/22 11:12:27;;;;;;;3.30;3.00;;;;;;;37.63;37.10;100570.56;5549421;32;32395;-88
2023/08/22 11:15:30;;;;;;;3.45;3.15;;;;;;;37.64;36.42;100572.25;5561799;26;33887;-88
2023/08/22 11:18:35;;;;;;;3.53;2.97;;;;;;;38.59;34.77;100575.19;5511501;32;33317;-88
2023/08/22 11:21:38;;;;;;;3.42;2.90;;;;;;;39.38;34.80;100561.81;5528404;26;33875;-89
2023/08/22 11:24:42;;;;;;;3.20;3.00;;;;;;;40.60;32.51;100565.81;5529582;32;34104;-88
2023/08/22 11:27:45;;;;;;;3.50;3.20;;;;;;;40.26;33.25;100567.06;5530120;32;33780;-88
2023/08/22 11:30:50;;;;;;;3.65;3.35;;;;;;;39.32;33.85;100563.69;5525837;32;33803;-88
2023/08/22 11:33:53;;;;;;;3.40;3.10;;;;;;;38.53;35.68;100557.66;5529621;32;33567;-88
2023/08/22 11:36:57;;;;;;;3.30;3.03;;;;;;;38.81;35.03;100551.03;5529907;32;34199;-90
2023/08/22 11:40:00;;;;;;;3.70;3.17;;;;;;;38.66;34.81;100545.34;5530714;32;33758;-89
2023/08/22 11:43:03;;;;;;;2.97;2.67;;;;;;;38.02;37.68;100544.81;5561910;26;33699;-90
2023/08/22 11:57:38;;;;;;;3.15;2.80;;;;;;;37.30;36.74;100547.34;2463591;29;20147;-89
2023/08/22 12:00:41;;;;;;;3.25;2.95;;;;;;;37.28;36.91;100539.31;5550470;32;33917;-88
2023/08/22 12:03:44;;;;;;;3.40;3.10;;;;;;;37.08;36.65;100535.09;5548787;32;33539;-87
2023/08/22 12:07:07;;;;;;;2.60;2.40;;;;;;;37.08;37.45;100532.31;5550274;32;34101;-89
2023/08/22 12:10:12;;;;;;;2.50;2.30;;;;;;;36.83;35.27;100543.75;5549614;32;33659;-89
2023/08/22 12:13:17;;;;;;;2.97;2.67;;;;;;;36.88;36.76;100537.47;5550294;32;33622;-90
2023/08/22 12:16:20;;;;;;;2.50;2.30;;;;;;;37.23;36.25;100533.69;5550186;32;34314;-90
2023/08/22 12:19:23;;;;;;;3.05;2.62;;;;;;;37.13;35.69;100527.97;5550828;32;33893;-90
2023/08/22 12:22:25;;;;;;;3.05;2.72;;;;;;;36.21;38.14;100528.75;5550425;32;33991;-89
2023/08/22 12:25:28;;;;;;;2.92;2.72;;;;;;;36.82;34.33;100525.50;5549858;32;33909;-89
2023/08/22 12:28:31;;;;;;;2.55;2.35;;;;;;;36.60;36.32;100519.84;5549089;32;33619;-89
2023/08/22 12:31:34;;;;;;;2.10;2.00;;;;;;;36.17;36.59;100513.75;5549884;32;33513;-88
2023/08/22 12:34:37;;;;;;;2.72;2.53;;;;;;;36.22;34.92;100514.69;5550245;32;33805;-89
2023/08/22 12:37:40;;;;;;;3.00;2.70;;;;;;;36.28;36.12;100513.72;5551313;32;33884;-89
2023/08/22 12:40:43;;;;;;;2.70;2.50;;;;;;;36.53;35.13;100503.41;5551601;32;35231;-89
2023/08/22 12:43:46;;;;;;;2.80;2.60;;;;;;;36.65;35.48;100504.22;5551896;32;34122;-89
2023/08/22 12:46:51;;;;;;;2.65;2.45;;;;;;;36.49;36.03;100505.00;5551440;32;33643;-89
2023/08/22 12:49:54;;;;;;;2.87;2.55;;;;;;;35.80;36.64;100512.13;5552640;32;34379;-89
2023/08/22 12:52:57;;;;;;;3.12;2.83;;;;;;;35.92;35.75;100499.16;5551881;32;34050;-89
2023/08/22 12:56:00;;;;;;;2.60;2.40;;;;;;;36.07;34.11;100495.88;5553449;32;33868;-89
2023/08/22 12:59:03;;;;;;;2.95;2.70;;;;;;;35.86;36.29;100497.34;5568397;26;33735;-90
2023/08/22 13:05:45;;;;;;;2.67;2.45;;;;;;;35.73;35.86;100490.16;5599822;26;20093;-92
2023/08/22 13:09:00;;;;;;;3.00;2.70;;;;;;;36.07;35.34;100490.34;5584525;26;33618;31
2023/08/22 13:12:03;;;;;;;2.60;2.40;;;;;;;35.73;36.12;100479.12;5513678;32;34814;-90
2023/08/22 13:41:35;;;;;;;3.20;2.65;;;;;;;35.44;36.20;100448.69;5551455;32;20099;-93
2023/08/22 13:44:37;;;;;;;3.10;2.80;;;;;;;35.22;37.90;100449.28;5552632;32;34417;-93
2023/08/22 13:47:40;;;;;;;2.80;2.60;;;;;;;35.14;38.26;100452.41;5562341;32;34243;-91
2023/08/22 13:50:43;;;;;;;3.03;2.72;;;;;;;35.39;38.19;100452.16;5565184;32;33836;-89
2023/08/22 13:53:46;;;;;;;3.28;2.95;;;;;;;34.99;38.49;100442.66;5566132;32;34155;-89
2023/08/22 13:56:49;;;;;;;2.90;2.60;;;;;;;34.95;39.60;100435.97;5556492;32;35111;-89
2023/08/22 13:59:52;;;;;;;2.85;2.33;;;;;;;35.32;37.56;100446.78;5550330;32;33993;-89
2023/08/22 14:02:55;;;;;;;2.72;2.45;;;;;;;35.10;36.13;100437.44;5550649;32;34484;-89
2023/08/22 14:05:58;;;;;;;2.80;2.55;;;;;;;35.18;35.89;100432.41;5550153;32;34362;-89
2023/08/22 14:09:00;;;;;;;3.15;2.60;;;;;;;35.01;36.61;100439.66;5555174;32;34667;-89
2023/08/22 14:12:11;;;;;;;2.50;2.30;;;;;;;35.21;36.78;100426.38;5561502;32;34831;-89
2023/08/22 14:15:14;;;;;;;2.42;2.22;;;;;;;35.43;36.46;100427.69;5546080;32;33755;-88
2023/08/22 14:18:17;;;;;;;2.90;2.60;;;;;;;35.43;35.78;100435.97;5529860;32;34404;-88
2023/08/22 14:21:19;;;;;;;2.80;2.60;;;;;;;35.16;35.57;100423.53;5530462;32;33796;-88
2023/08/22 14:24:26;;;;;;;3.10;2.72;;;;;;;34.91;37.08;100416.31;5530364;32;34621;-88
2023/08/22 14:27:30;;;;;;;2.87;2.58;;;;;;;34.92;37.66;100418.00;5532546;32;33943;-88
2023/08/22 14:30:34;;;;;;;3.42;3.12;;;;;;;35.07;38.42;100420.28;5529943;32;34832;-88
2023/08/22 14:33:38;;;;;;;3.30;2.95;;;;;;;34.91;37.53;100413.56;5530031;32;33548;-88
2023/08/22 14:36:41;;;;;;;2.60;2.30;;;;;;;34.54;37.21;100406.28;5530133;32;33859;-88
2023/08/22 14:39:44;;;;;;;2.95;2.25;;;;;;;34.83;36.97;100405.63;5530058;32;33542;-88
2023/08/22 14:42:47;;;;;;;2.58;2.37;;;;;;;35.01;36.43;100404.69;5529868;32;35065;-88
2023/08/22 14:45:50;;;;;;;2.60;2.40;;;;;;;34.80;36.74;100401.44;5536498;32;33994;-88
2023/08/22 14:48:54;;;;;;;2.22;2.03;;;;;;;34.68;36.81;100406.09;5549560;32;34466;-88
2023/08/22 14:51:57;;;;;;;2.75;2.55;;;;;;;34.76;36.93;100402.16;5549367;32;33702;-87
2023/08/22 14:55:00;;;;;;;2.50;2.30;;;;;;;34.64;37.41;100400.22;5549645;32;34716;-87
2023/08/22 14:58:05;;;;;;;2.60;2.40;;;;;;;34.54;38.00;100397.19;5548655;32;33805;-88
2023/08/22 15:01:08;;;;;;;2.55;2.35;;;;;;;34.58;38.49;100395.66;5549547;32;33519;-87
2023/08/22 15:04:11;;;;;;;2.65;2.45;;;;;;;34.65;38.30;100390.88;5549023;32;33854;-87
2023/08/22 15:07:14;;;;;;;2.90;2.60;;;;;;;34.65;37.58;100395.56;5549302;32;33909;-87
2023/08/22 15:10:17;;;;;;;2.37;2.17;;;;;;;34.52;37.94;100394.66;5548906;32;34384;-88
2023/08/22 15:13:20;;;;;;;3.67;2.87;;;;;;;34.45;37.36;100393.94;5549477;32;33920;-88
2023/08/22 15:16:22;;;;;;;3.12;2.58;;;;;;;34.59;37.82;100391.00;5548745;32;33944;-87
2023/08/22 15:19:25;;;;;;;2.25;2.00;;;;;;;34.59;37.16;100391.00;5549606;32;33862;-87
2023/08/22 15:22:28;;;;;;;2.72;2.53;;;;;;;34.49;37.94;100395.12;5550863;32;33893;-87
